Weather History for Perry, IA

Change the Weather History Date:

Monday, February 13, 2012

  Actual Average Record
Temperature  
Mean Temperature 28 °F -  
Max Temperature 30 °F 32 °F 68 °F (1990)
Min Temperature 25 °F 13 °F -17 °F (1965)
Degree Days  
Heating Degree Days 38    
Moisture  
Dew Point 27 °F    
Average Humidity 95    
Maximum Humidity 100    
Minimum Humidity 71    
Precipitation  
Precipitation 0.00 in - - ()
Sea Level Pressure  
Sea Level Pressure 29.88 in    
Wind  
Wind Speed 11 mph (SSE)    
Max Wind Speed 20 mph    
Max Gust Speed 23 mph    
Visibility 6 miles    
Events Snow    
Averages and records for this station are not official NWS values.
T = Trace of Precipitation, MM = Missing Value Source: NWS Daily Summary

Daily Weather History Graph

Daily Weather History Graph

Search for Another Location

Airport:

Trip Planner

Search our weather history database for the weather conditions in past years. The results will help you decide how hot, cold, wet, or windy it might be!

Date:

Astronomy

Feb. 13, 2012 Rise Set
Actual Time 7:15 AM CST 5:46 PM CST
Civil Twilight 6:46 AM CST 6:15 PM CST
Nautical Twilight 6:14 AM CST 6:48 PM CST
Astronomical Twilight 5:41 AM CST 7:20 PM CST
Moon No Moon Rise 10:07 AM CST (2/13)
Length of Visible Light 11h 28m
Length of Day
10h 31m
Waning Gibbous, 61% of the Moon is Illuminated
Feb 13
Waning Gibbous
Feb 14
Last Quarter
Feb 21
New
Feb 29
First Quarter
Mar 8
Full

Hourly Weather History & Observations

Time (CST) Temp. Windchill Dew Point Humidity Pressure Visibility Wind Dir Wind Speed Gust Speed Precip Events Conditions
12:15 AM 25.2 °F 15.7 °F 19.6 °F 79% 30.08 in 10.0 mi SSE 9.2 mph - N/A   Overcast
12:35 AM 25.7 °F 15.7 °F 19.6 °F 78% 30.07 in 10.0 mi SSE 10.4 mph - N/A   Overcast
12:55 AM 26.6 °F 16.8 °F 19.4 °F 74% 30.06 in 10.0 mi SSE 10.4 mph - N/A   Overcast
1:15 AM 26.2 °F 17.1 °F 20.7 °F 79% 30.06 in 10.0 mi SSE 9.2 mph - N/A   Overcast
1:35 AM 26.4 °F 17.3 °F 21.2 °F 81% 30.05 in 10.0 mi SE 9.2 mph - N/A   Overcast
1:55 AM 26.6 °F 16.8 °F 21.2 °F 80% 30.04 in 10.0 mi SSE 10.4 mph - N/A   Overcast
2:15 AM 27.1 °F 17.5 °F 20.5 °F 76% 30.03 in 10.0 mi SSE 10.4 mph - N/A   Overcast
2:35 AM 27.3 °F 17.7 °F 20.7 °F 76% 30.02 in 10.0 mi SSE 10.4 mph - N/A   Overcast
2:55 AM 27.3 °F 17.7 °F 21.0 °F 77% 30.00 in 10.0 mi South 10.4 mph - N/A   Overcast
3:15 AM 27.3 °F 17.7 °F 21.2 °F 78% 30.00 in 10.0 mi South 10.4 mph - N/A   Overcast
3:35 AM 27.9 °F 16.3 °F 20.7 °F 74% 30.00 in 10.0 mi South 15.0 mph 20.7 mph N/A   Overcast
3:55 AM 28.4 °F 15.4 °F 20.8 °F 73% 29.99 in 10.0 mi SSW 19.6 mph 23.0 mph N/A   Overcast
4:15 AM 28.9 °F 17.7 °F 20.5 °F 71% 29.99 in 10.0 mi South 15.0 mph - N/A   Overcast
4:55 AM 26.1 °F 13.1 °F 25.7 °F 99% 29.99 in 3.0 mi South 17.3 mph 23.0 mph N/A Snow Light Snow
5:15 AM 25.7 °F 13.5 °F 25.7 °F 100% 29.98 in 3.0 mi South 15.0 mph - N/A Snow Light Snow
5:35 AM 25.7 °F 14.0 °F 25.7 °F 100% 29.98 in 2.5 mi South 13.8 mph - N/A Snow Light Snow
5:55 AM 25.5 °F 15.5 °F 25.5 °F 100% 29.97 in 2.0 mi South 10.4 mph - N/A Snow Light Snow
6:15 AM 25.3 °F 15.3 °F 25.3 °F 100% 29.96 in 2.0 mi SSE 10.4 mph - N/A Snow Light Snow
6:35 AM 25.3 °F 14.7 °F 25.3 °F 100% 29.95 in 2.0 mi SSE 11.5 mph - N/A Snow Light Snow
6:55 AM 25.5 °F 15.5 °F 25.5 °F 100% 29.94 in 2.0 mi SE 10.4 mph - N/A Snow Light Snow
7:15 AM 25.7 °F 14.6 °F 25.7 °F 100% 29.94 in 1.8 mi SE 12.7 mph - N/A Snow Light Snow
7:35 AM 25.7 °F 14.0 °F 25.7 °F 100% 29.93 in 3.0 mi SE 13.8 mph - N/A Snow Light Snow
7:55 AM 26.1 °F 14.5 °F 26.1 °F 100% 29.92 in 1.8 mi SE 13.8 mph - N/A Snow Light Snow
8:15 AM 26.2 °F 14.7 °F 26.2 °F 100% 29.92 in 1.8 mi SE 13.8 mph - N/A Snow Light Snow
8:35 AM 26.4 °F 15.5 °F 26.4 °F 100% 29.91 in 1.5 mi SE 12.7 mph - N/A Snow Light Snow
8:55 AM 26.6 °F 15.2 °F 26.6 °F 100% 29.90 in 1.8 mi SE 13.8 mph - N/A Snow Light Snow
9:15 AM 26.8 °F 14.5 °F 26.8 °F 100% 29.89 in 1.0 mi SSE 16.1 mph - N/A Snow Light Snow
9:35 AM 27.1 °F 15.9 °F 27.1 °F 100% 29.89 in 1.2 mi SSE 13.8 mph - N/A Snow Light Snow
9:55 AM 27.1 °F 15.9 °F 27.1 °F 100% 29.88 in 0.8 mi SSE 13.8 mph - N/A Snow Light Snow
10:15 AM 27.5 °F 16.3 °F 27.5 °F 100% 29.87 in 1.0 mi SSE 13.8 mph - N/A Snow Light Snow
10:35 AM 28.2 °F 17.7 °F 28.2 °F 100% 29.86 in 3.0 mi SSE 12.7 mph - N/A Snow Light Snow
10:55 AM 28.6 °F 17.7 °F 28.6 °F 100% 29.86 in 5.0 mi SSE 13.8 mph - N/A Snow Light Snow
11:15 AM 29.1 °F 19.4 °F 29.1 °F 100% 29.85 in 7.0 mi SSE 11.5 mph - N/A   Light Freezing Rain
11:35 AM 29.7 °F 20.1 °F 29.7 °F 100% 29.84 in 10.0 mi South 11.5 mph - N/A   Overcast
11:55 AM 30.2 °F 19.8 °F 30.2 °F 100% 29.83 in 10.0 mi South 13.8 mph - N/A   Overcast
12:15 PM 30.2 °F 20.2 °F 30.2 °F 100% 29.82 in 10.0 mi South 12.7 mph - N/A   Overcast
12:35 PM 30.7 °F 20.9 °F 30.2 °F 98% 29.80 in 10.0 mi South 12.7 mph - N/A   Overcast
12:55 PM 30.9 °F 20.7 °F 30.6 °F 99% 29.79 in 10.0 mi South 13.8 mph - N/A   Overcast
1:15 PM 30.9 °F 20.7 °F 30.7 °F 99% 29.79 in 10.0 mi South 13.8 mph - N/A   Overcast
1:35 PM 30.9 °F 20.7 °F 30.9 °F 100% 29.78 in 10.0 mi South 13.8 mph - N/A   Overcast
1:55 PM 30.9 °F 19.8 °F 30.9 °F 100% 29.77 in 10.0 mi South 16.1 mph - N/A   Overcast
2:15 PM 30.9 °F 21.2 °F 30.9 °F 100% 29.77 in 10.0 mi South 12.7 mph - N/A   Overcast
2:35 PM 30.9 °F 20.7 °F 30.9 °F 100% 29.76 in 10.0 mi South 13.8 mph - N/A   Overcast
2:55 PM 30.7 °F 20.4 °F 30.7 °F 100% 29.76 in 7.0 mi South 13.8 mph - N/A   Overcast
3:35 PM 30.9 °F 21.7 °F 30.9 °F 100% 29.76 in 3.0 mi South 11.5 mph - N/A   Overcast
3:55 PM 30.9 °F 22.2 °F 30.9 °F 100% 29.75 in 2.5 mi South 10.4 mph - N/A   Overcast
4:15 PM 30.9 °F 22.2 °F 30.9 °F 100% 29.75 in 2.5 mi South 10.4 mph - N/A   Overcast
4:35 PM 30.7 °F 22.0 °F 30.7 °F 100% 29.74 in 2.0 mi South 10.4 mph - N/A   Overcast
4:55 PM 30.6 °F 21.8 °F 30.6 °F 100% 29.74 in 3.0 mi South 10.4 mph - N/A   Overcast
5:15 PM 30.6 °F 22.4 °F 30.6 °F 100% 29.74 in 5.0 mi South 9.2 mph - N/A   Overcast
5:35 PM 30.6 °F 23.1 °F 30.6 °F 100% 29.74 in 5.0 mi South 8.1 mph - N/A   Overcast
5:55 PM 30.6 °F 23.1 °F 30.6 °F 100% 29.74 in 5.0 mi South 8.1 mph - N/A   Overcast
6:15 PM 30.6 °F 23.1 °F 30.6 °F 100% 29.75 in 4.0 mi South 8.1 mph - N/A   Overcast
6:35 PM 30.2 °F 23.4 °F 30.2 °F 100% 29.75 in 3.0 mi South 6.9 mph - N/A   Overcast
6:55 PM 30.2 °F 22.6 °F 30.2 °F 100% 29.75 in 2.5 mi South 8.1 mph - N/A   Overcast
7:35 PM 30.2 °F 23.4 °F 30.2 °F 100% 29.75 in 4.0 mi South 6.9 mph - N/A   Overcast
7:55 PM 30.2 °F 24.3 °F 30.2 °F 100% 29.75 in 3.0 mi South 5.8 mph - N/A   Overcast
8:15 PM 30.2 °F 24.3 °F 30.2 °F 100% 29.75 in 4.0 mi South 5.8 mph - N/A   Overcast
8:35 PM 30.2 °F 24.3 °F 30.2 °F 100% 29.75 in 4.0 mi South 5.8 mph - N/A   Overcast
8:55 PM 30.2 °F 24.3 °F 30.2 °F 100% 29.75 in 4.0 mi South 5.8 mph - N/A   Overcast
9:15 PM 30.2 °F 24.3 °F 30.2 °F 100% 29.75 in 3.0 mi South 5.8 mph - N/A   Overcast
9:35 PM 30.2 °F 24.3 °F 30.2 °F 100% 29.75 in 3.0 mi South 5.8 mph - N/A   Overcast
9:55 PM 30.2 °F 24.3 °F 30.2 °F 100% 29.75 in 4.0 mi South 5.8 mph - N/A   Overcast
10:15 PM 29.8 °F 23.9 °F 29.8 °F 100% 29.75 in 3.0 mi South 5.8 mph - N/A   Overcast
10:35 PM 29.7 °F 23.7 °F 29.7 °F 100% 29.75 in 4.0 mi South 5.8 mph - N/A   Overcast
10:55 PM 29.5 °F 24.5 °F 29.5 °F 100% 29.75 in 3.0 mi South 4.6 mph - N/A   Overcast
11:15 PM 29.8 °F 23.9 °F 29.8 °F 100% 29.74 in 3.0 mi SSW 5.8 mph - N/A Rain Light Freezing Rain
11:55 PM 30.2 °F 25.4 °F 30.2 °F 100% 29.75 in 3.0 mi SSW 4.6 mph - N/A   Overcast